LGTS/SKG METAR and TAF weather

Enter ICAO airport designator
Station Type Date Time Source
LGTS METAR 2019/02/16 17:20 UTC NOAA

LGTS 161720Z 12005KT CAVOK 09/00 Q1027 NOSIG


Station Type Date Time Source
LGTS Decoded METAR 2019/02/16 17:20 UTC NOAA

Thessaloniki Airport , Greece (LGTS) 40-31N 022-58E 4M
Feb 16, 2019 - 12:20 PM EST / 2019.02.16 1720 UTC
Wind: from the ESE (120 degrees) at 6 MPH (5 KT):0
Visibility: greater than 7 mile(s):0
Temperature: 48 F (9 C)
Dew Point: 32 F (0 C)
Relative Humidity: 53%
Pressure (altimeter): 30.33 in. Hg (1027 hPa)
ob: LGTS 161720Z 12005KT CAVOK 09/00 Q1027 NOSIG
cycle: 17

Station Type Date Time Source
LGTS TAF 2019/02/16 18:16 UTC NOAA

TAF LGTS 161700Z 1618/1718 VRB03KT 9999 FEW030


Example: see airport list